SBSVSBPL

Guest
Details From SBSV - Salvador Bahia Deputado Luis Eduardo M
To SBPL - SENADOR NILO COELHO
Flight Number -
Tags generated
Created
Modified
Stats Distance 251 nm / 464 km
Max Altitude 28,600 ft / 8,717 m
Waypoints 5
Social Downloads 0
Likes 0
Share VATSIM

Download

Looking for another format? Having issues loading an existing format? Contact us
Advertisement - Login to hide

Notes

Basic altitude profile: - Ascent Rate: 2500ft/min - Ascent Speed: 250kts - Cruise Altitude: 32000ft - Cruise Speed: 450kts - Descent Rate: 1500ft/min - Descent Speed: 250kts Options: - Use NATs: yes - Use PACOTS: yes - Use low airways: no - Use high airways: yes

Route

SBSV ARETE UZ20 ADEMI SBPL

ID Type Via Altitude Latitude Longitude Leg Dist Tot Dist Heading (true) Name
O SBSV APT - 0 ft / 0 m -12.91099˚ -38.33104˚ - 0 nm - Salvador Bahia Deputado Luis Eduardo M
ARETE FIX - 28,600 ft / 8,717 m -11.77208˚ -39.04558˚ 80 nm 80 nm 328° / 329° -
FLOCK FIX UZ20 (AWY-HI) 24,500 ft / 7,468 m -10.98050˚ -39.54700˚ 55 nm 136 nm 328° / 328° -
ADEMI FIX UZ20 (AWY-HI) 24,500 ft / 7,468 m -10.55322˚ -39.81608˚ 30 nm 166 nm 328° / 328° -
O SBPL APT - 0 ft / 0 m -9.36241˚ -40.56910˚ 84 nm 250 nm 328° / 328° SENADOR NILO COELHO

Altitude Profile

Advertisement - Login to hide

Weather


0- 5 10 15 20 25 30 35+ Temperature / ° C

Clouds and Precipitation
Forecast for 2018-05-22 18:00 UTC. Updated 2 hours ago

Ground ~20,000 ft ~40,000 ft Winds

SBSV

Details ICAO SBSV (SSA)
Name Salvador Bahia Deputado Luis Eduardo M
Region Brazil
Timezone America/Bahia (UTC-3.0)
Stats Elevation 64 ft / 20 m (AMSL)
Location -12.910994° -38.331043°
Runways 2
Magnetic Variation 23.445° W

METAR

SBSV 221900Z 11009KT 9999 SCT023 29/23 Q1015

Decode

TAF

TAF SBSV 221600Z 2218/2318 11008KT 9999 SCT020 TN23/2308Z TX30/2314Z PROB40 2307/2313 6000 SHRA BKN014 RMK PCN

Decode

Departure Runways

ID Width Length Bearing (true) Bearing (mag) Surface Threshold Offset Overrun Length
10 148 ft / 45 m 9,845 ft / 3,001 m 78.32° 101.77° Asphalt 0 ft / 0 m 205 ft / 62 m
17 148 ft / 45 m 5,014 ft / 1,528 m 144.04° 167.49° Asphalt 0 ft / 0 m 0 ft / 0 m
28 148 ft / 45 m 9,845 ft / 3,001 m 258.31° 281.76° Asphalt 0 ft / 0 m 205 ft / 62 m
35 148 ft / 45 m 5,014 ft / 1,528 m 324.04° 347.49° Asphalt 0 ft / 0 m 0 ft / 0 m

SBPL

Details ICAO SBPL (PNZ)
Name SENADOR NILO COELHO
Region Brazil
Timezone America/Recife (UTC-3.0)
Stats Elevation 1,263 ft / 385 m (AMSL)
Location -9.362412° -40.569099°
Runways 1
Magnetic Variation 22.601° W

METAR

SBPL 221900Z 14010KT 9999 FEW025 33/16 Q1012

Decode

TAF

TAF SBPL 221600Z 2218/2318 14010KT 9999 SCT025 TX35/2318Z TN23/2308Z BECMG 2222/2223 CAVOK RMK PCN

Decode

Destination Runways

ID Width Length Bearing (true) Bearing (mag) Surface Threshold Offset Overrun Length
13 140 ft / 43 m 10,642 ft / 3,244 m 109.17° 131.77° Asphalt 1,605 ft / 489 m 0 ft / 0 m
31 140 ft / 43 m 10,642 ft / 3,244 m 289.16° 311.76° Asphalt 0 ft / 0 m 0 ft / 0 m

Popular Alternatives